sensor_id;sensor_type;location;lat;lon;timestamp;P1;durP1;ratioP1;P2;durP2;ratioP2
21611;SDS011;47005;52.292;13.452;2022-11-20T00:00:35;16.13;;;10.13;;
21611;SDS011;47005;52.292;13.452;2022-11-20T00:03:00;14.17;;;9.57;;
21611;SDS011;47005;52.292;13.452;2022-11-20T00:05:26;17.53;;;11.27;;
21611;SDS011;47005;52.292;13.452;2022-11-20T00:07:52;15.93;;;9.57;;
21611;SDS011;47005;52.292;13.452;2022-11-20T00:10:17;16.50;;;9.67;;
21611;SDS011;47005;52.292;13.452;2022-11-20T00:12:43;17.30;;;11.13;;
21611;SDS011;47005;52.292;13.452;2022-11-20T00:15:09;15.03;;;10.20;;
21611;SDS011;47005;52.292;13.452;2022-11-20T00:17:35;16.23;;;10.73;;
21611;SDS011;47005;52.292;13.452;2022-11-20T00:20:00;16.37;;;10.43;;
21611;SDS011;47005;52.292;13.452;2022-11-20T00:22:26;14.30;;;9.40;;
21611;SDS011;47005;52.292;13.452;2022-11-20T00:24:51;14.33;;;9.93;;
21611;SDS011;47005;52.292;13.452;2022-11-20T00:27:17;14.00;;;9.60;;
21611;SDS011;47005;52.292;13.452;2022-11-20T00:29:43;17.37;;;10.73;;
21611;SDS011;47005;52.292;13.452;2022-11-20T00:32:08;13.37;;;8.90;;
21611;SDS011;47005;52.292;13.452;2022-11-20T00:34:34;13.80;;;9.90;;
21611;SDS011;47005;52.292;13.452;2022-11-20T00:36:59;18.17;;;10.50;;
21611;SDS011;47005;52.292;13.452;2022-11-20T00:39:25;15.13;;;10.37;;
21611;SDS011;47005;52.292;13.452;2022-11-20T00:41:50;17.80;;;11.17;;
21611;SDS011;47005;52.292;13.452;2022-11-20T00:44:16;18.00;;;10.47;;
21611;SDS011;47005;52.292;13.452;2022-11-20T00:46:42;15.77;;;10.17;;
21611;SDS011;47005;52.292;13.452;2022-11-20T00:49:07;15.60;;;10.27;;
21611;SDS011;47005;52.292;13.452;2022-11-20T00:51:33;14.23;;;9.93;;
21611;SDS011;47005;52.292;13.452;2022-11-20T00:53:58;18.03;;;11.13;;
21611;SDS011;47005;52.292;13.452;2022-11-20T00:56:25;15.00;;;9.80;;
21611;SDS011;47005;52.292;13.452;2022-11-20T00:58:50;14.17;;;9.90;;
21611;SDS011;47005;52.292;13.452;2022-11-20T01:03:54;15.83;;;11.23;;
21611;SDS011;47005;52.292;13.452;2022-11-20T01:08:48;17.37;;;10.97;;
21611;SDS011;47005;52.292;13.452;2022-11-20T01:11:17;16.90;;;9.70;;
21611;SDS011;47005;52.292;13.452;2022-11-20T01:13:47;13.33;;;9.53;;
21611;SDS011;47005;52.292;13.452;2022-11-20T01:16:18;16.10;;;10.30;;
21611;SDS011;47005;52.292;13.452;2022-11-20T01:18:45;17.13;;;11.07;;
21611;SDS011;47005;52.292;13.452;2022-11-20T01:21:22;15.93;;;9.00;;
21611;SDS011;47005;52.292;13.452;2022-11-20T01:23:50;15.50;;;9.03;;
21611;SDS011;47005;52.292;13.452;2022-11-20T01:26:18;14.80;;;11.20;;
21611;SDS011;47005;52.292;13.452;2022-11-20T01:28:46;17.10;;;11.43;;
21611;SDS011;47005;52.292;13.452;2022-11-20T01:33:48;13.60;;;9.83;;
21611;SDS011;47005;52.292;13.452;2022-11-20T01:36:16;17.13;;;10.17;;
21611;SDS011;47005;52.292;13.452;2022-11-20T01:38:43;21.70;;;10.97;;
21611;SDS011;47005;52.292;13.452;2022-11-20T01:41:09;18.13;;;10.83;;
21611;SDS011;47005;52.292;13.452;2022-11-20T01:43:56;17.40;;;10.97;;
21611;SDS011;47005;52.292;13.452;2022-11-20T01:46:22;15.00;;;10.33;;
21611;SDS011;47005;52.292;13.452;2022-11-20T01:48:57;16.10;;;9.30;;
21611;SDS011;47005;52.292;13.452;2022-11-20T01:51:45;13.67;;;10.23;;
21611;SDS011;47005;52.292;13.452;2022-11-20T01:54:17;14.80;;;9.73;;
21611;SDS011;47005;52.292;13.452;2022-11-20T01:56:50;16.60;;;11.30;;
21611;SDS011;47005;52.292;13.452;2022-11-20T01:59:20;16.60;;;10.70;;
21611;SDS011;47005;52.292;13.452;2022-11-20T02:01:46;16.20;;;9.83;;
21611;SDS011;47005;52.292;13.452;2022-11-20T02:04:12;18.10;;;11.87;;
21611;SDS011;47005;52.292;13.452;2022-11-20T02:06:43;17.73;;;10.27;;
21611;SDS011;47005;52.292;13.452;2022-11-20T02:09:13;17.07;;;10.40;;
21611;SDS011;47005;52.292;13.452;2022-11-20T02:11:40;18.00;;;11.00;;
21611;SDS011;47005;52.292;13.452;2022-11-20T02:14:05;16.57;;;9.57;;
21611;SDS011;47005;52.292;13.452;2022-11-20T02:16:35;17.17;;;10.23;;
21611;SDS011;47005;52.292;13.452;2022-11-20T02:19:06;16.97;;;10.90;;
21611;SDS011;47005;52.292;13.452;2022-11-20T02:24:37;16.13;;;10.53;;
21611;SDS011;47005;52.292;13.452;2022-11-20T02:27:04;15.53;;;10.80;;
21611;SDS011;47005;52.292;13.452;2022-11-20T02:29:36;19.47;;;10.30;;
21611;SDS011;47005;52.292;13.452;2022-11-20T02:32:05;18.40;;;11.03;;
21611;SDS011;47005;52.292;13.452;2022-11-20T02:34:31;17.33;;;11.37;;
21611;SDS011;47005;52.292;13.452;2022-11-20T02:36:57;18.73;;;12.43;;
21611;SDS011;47005;52.292;13.452;2022-11-20T02:39:25;16.37;;;10.10;;
21611;SDS011;47005;52.292;13.452;2022-11-20T02:41:55;15.40;;;9.37;;
21611;SDS011;47005;52.292;13.452;2022-11-20T02:44:22;16.93;;;10.37;;
21611;SDS011;47005;52.292;13.452;2022-11-20T02:46:47;17.53;;;10.40;;
21611;SDS011;47005;52.292;13.452;2022-11-20T02:49:13;17.70;;;9.03;;
21611;SDS011;47005;52.292;13.452;2022-11-20T02:51:38;16.20;;;10.20;;
21611;SDS011;47005;52.292;13.452;2022-11-20T02:54:04;18.63;;;10.63;;
21611;SDS011;47005;52.292;13.452;2022-11-20T02:56:30;13.83;;;9.23;;
21611;SDS011;47005;52.292;13.452;2022-11-20T02:58:56;19.40;;;10.77;;
21611;SDS011;47005;52.292;13.452;2022-11-20T03:01:22;15.27;;;10.60;;
21611;SDS011;47005;52.292;13.452;2022-11-20T03:03:48;15.57;;;10.27;;
21611;SDS011;47005;52.292;13.452;2022-11-20T03:06:14;15.10;;;10.13;;
21611;SDS011;47005;52.292;13.452;2022-11-20T03:08:41;16.27;;;9.53;;
21611;SDS011;47005;52.292;13.452;2022-11-20T03:11:07;13.13;;;8.60;;
21611;SDS011;47005;52.292;13.452;2022-11-20T03:13:33;18.30;;;10.40;;
21611;SDS011;47005;52.292;13.452;2022-11-20T03:16:09;17.40;;;9.63;;
21611;SDS011;47005;52.292;13.452;2022-11-20T03:18:40;18.83;;;10.77;;
21611;SDS011;47005;52.292;13.452;2022-11-20T03:21:06;16.30;;;9.67;;
21611;SDS011;47005;52.292;13.452;2022-11-20T03:23:33;16.90;;;10.70;;
21611;SDS011;47005;52.292;13.452;2022-11-20T03:28:37;15.47;;;9.90;;
21611;SDS011;47005;52.292;13.452;2022-11-20T03:31:06;11.30;;;8.60;;
21611;SDS011;47005;52.292;13.452;2022-11-20T03:33:38;16.30;;;10.60;;
21611;SDS011;47005;52.292;13.452;2022-11-20T03:36:05;19.00;;;10.10;;
21611;SDS011;47005;52.292;13.452;2022-11-20T03:38:33;13.07;;;10.23;;
21611;SDS011;47005;52.292;13.452;2022-11-20T03:41:04;20.43;;;11.20;;
21611;SDS011;47005;52.292;13.452;2022-11-20T03:43:32;17.53;;;11.03;;
21611;SDS011;47005;52.292;13.452;2022-11-20T03:45:58;13.23;;;9.70;;
21611;SDS011;47005;52.292;13.452;2022-11-20T03:48:24;16.00;;;9.80;;
21611;SDS011;47005;52.292;13.452;2022-11-20T03:50:51;16.63;;;9.33;;
21611;SDS011;47005;52.292;13.452;2022-11-20T03:53:18;19.13;;;9.97;;
21611;SDS011;47005;52.292;13.452;2022-11-20T03:55:44;16.90;;;9.60;;
21611;SDS011;47005;52.292;13.452;2022-11-20T03:58:15;16.77;;;10.80;;
21611;SDS011;47005;52.292;13.452;2022-11-20T04:00:40;17.97;;;9.53;;
21611;SDS011;47005;52.292;13.452;2022-11-20T04:03:06;15.70;;;9.63;;
21611;SDS011;47005;52.292;13.452;2022-11-20T04:05:32;20.07;;;10.27;;
21611;SDS011;47005;52.292;13.452;2022-11-20T04:07:59;21.50;;;10.03;;
21611;SDS011;47005;52.292;13.452;2022-11-20T04:10:25;15.83;;;10.37;;
21611;SDS011;47005;52.292;13.452;2022-11-20T04:12:51;16.97;;;9.77;;
21611;SDS011;47005;52.292;13.452;2022-11-20T04:15:16;18.00;;;10.17;;
21611;SDS011;47005;52.292;13.452;2022-11-20T04:17:42;14.00;;;8.83;;
21611;SDS011;47005;52.292;13.452;2022-11-20T04:20:08;15.60;;;8.70;;
21611;SDS011;47005;52.292;13.452;2022-11-20T04:22:34;17.33;;;11.90;;
21611;SDS011;47005;52.292;13.452;2022-11-20T04:24:59;15.60;;;9.03;;
21611;SDS011;47005;52.292;13.452;2022-11-20T04:27:25;11.73;;;8.33;;
21611;SDS011;47005;52.292;13.452;2022-11-20T04:29:51;12.63;;;8.27;;
21611;SDS011;47005;52.292;13.452;2022-11-20T04:32:16;12.27;;;8.67;;
21611;SDS011;47005;52.292;13.452;2022-11-20T04:34:42;17.23;;;9.77;;
21611;SDS011;47005;52.292;13.452;2022-11-20T04:37:07;15.20;;;8.70;;
21611;SDS011;47005;52.292;13.452;2022-11-20T04:39:33;15.83;;;9.90;;
21611;SDS011;47005;52.292;13.452;2022-11-20T04:41:58;16.00;;;9.77;;
21611;SDS011;47005;52.292;13.452;2022-11-20T04:44:42;14.10;;;9.77;;
21611;SDS011;47005;52.292;13.452;2022-11-20T04:47:08;15.20;;;10.00;;
21611;SDS011;47005;52.292;13.452;2022-11-20T04:49:34;16.07;;;10.50;;
21611;SDS011;47005;52.292;13.452;2022-11-20T04:51:59;15.63;;;10.33;;
21611;SDS011;47005;52.292;13.452;2022-11-20T04:54:25;17.27;;;10.30;;
21611;SDS011;47005;52.292;13.452;2022-11-20T04:56:50;16.07;;;10.33;;
21611;SDS011;47005;52.292;13.452;2022-11-20T04:59:16;15.33;;;10.20;;
21611;SDS011;47005;52.292;13.452;2022-11-20T05:01:41;13.97;;;9.40;;
21611;SDS011;47005;52.292;13.452;2022-11-20T05:04:07;12.97;;;8.67;;
21611;SDS011;47005;52.292;13.452;2022-11-20T05:06:33;12.27;;;8.70;;
21611;SDS011;47005;52.292;13.452;2022-11-20T05:08:59;13.97;;;9.00;;
21611;SDS011;47005;52.292;13.452;2022-11-20T05:11:26;17.20;;;9.20;;
21611;SDS011;47005;52.292;13.452;2022-11-20T05:13:54;14.07;;;9.43;;
21611;SDS011;47005;52.292;13.452;2022-11-20T05:16:21;18.60;;;10.27;;
21611;SDS011;47005;52.292;13.452;2022-11-20T05:18:48;12.83;;;7.60;;
21611;SDS011;47005;52.292;13.452;2022-11-20T05:21:14;14.27;;;9.83;;
21611;SDS011;47005;52.292;13.452;2022-11-20T05:23:40;16.17;;;8.10;;
21611;SDS011;47005;52.292;13.452;2022-11-20T05:26:07;11.70;;;9.00;;
21611;SDS011;47005;52.292;13.452;2022-11-20T05:28:37;13.03;;;7.83;;
21611;SDS011;47005;52.292;13.452;2022-11-20T05:31:03;13.80;;;9.87;;
21611;SDS011;47005;52.292;13.452;2022-11-20T05:33:34;19.97;;;11.83;;
21611;SDS011;47005;52.292;13.452;2022-11-20T05:36:00;14.63;;;9.40;;
21611;SDS011;47005;52.292;13.452;2022-11-20T05:38:27;12.83;;;8.37;;
21611;SDS011;47005;52.292;13.452;2022-11-20T05:40:53;15.00;;;10.33;;
21611;SDS011;47005;52.292;13.452;2022-11-20T05:43:19;15.10;;;9.57;;
21611;SDS011;47005;52.292;13.452;2022-11-20T05:45:54;16.50;;;10.97;;
21611;SDS011;47005;52.292;13.452;2022-11-20T05:48:19;14.93;;;9.67;;
21611;SDS011;47005;52.292;13.452;2022-11-20T05:50:46;15.03;;;9.97;;
21611;SDS011;47005;52.292;13.452;2022-11-20T05:53:12;16.23;;;9.97;;
21611;SDS011;47005;52.292;13.452;2022-11-20T05:55:38;17.93;;;10.50;;
21611;SDS011;47005;52.292;13.452;2022-11-20T05:58:03;13.27;;;7.93;;
21611;SDS011;47005;52.292;13.452;2022-11-20T06:00:29;15.83;;;9.90;;
21611;SDS011;47005;52.292;13.452;2022-11-20T06:02:54;17.93;;;10.23;;
21611;SDS011;47005;52.292;13.452;2022-11-20T06:05:20;18.67;;;11.07;;
21611;SDS011;47005;52.292;13.452;2022-11-20T06:07:46;16.33;;;10.37;;
21611;SDS011;47005;52.292;13.452;2022-11-20T06:10:11;16.37;;;11.60;;
21611;SDS011;47005;52.292;13.452;2022-11-20T06:12:37;16.93;;;10.30;;
21611;SDS011;47005;52.292;13.452;2022-11-20T06:15:03;13.97;;;9.70;;
21611;SDS011;47005;52.292;13.452;2022-11-20T06:17:29;17.90;;;9.97;;
21611;SDS011;47005;52.292;13.452;2022-11-20T06:19:55;16.10;;;10.53;;
21611;SDS011;47005;52.292;13.452;2022-11-20T06:22:21;15.20;;;9.77;;
21611;SDS011;47005;52.292;13.452;2022-11-20T06:24:47;17.90;;;10.67;;
21611;SDS011;47005;52.292;13.452;2022-11-20T06:27:12;13.83;;;9.27;;
21611;SDS011;47005;52.292;13.452;2022-11-20T06:29:38;17.97;;;11.03;;
21611;SDS011;47005;52.292;13.452;2022-11-20T06:32:03;15.83;;;9.87;;
21611;SDS011;47005;52.292;13.452;2022-11-20T06:34:29;15.87;;;10.03;;
21611;SDS011;47005;52.292;13.452;2022-11-20T06:36:55;17.67;;;10.87;;
21611;SDS011;47005;52.292;13.452;2022-11-20T06:39:20;16.00;;;10.90;;
21611;SDS011;47005;52.292;13.452;2022-11-20T06:41:46;15.60;;;10.53;;
21611;SDS011;47005;52.292;13.452;2022-11-20T06:44:11;17.77;;;11.13;;
21611;SDS011;47005;52.292;13.452;2022-11-20T06:46:37;15.23;;;10.03;;
21611;SDS011;47005;52.292;13.452;2022-11-20T06:49:03;16.17;;;10.73;;
21611;SDS011;47005;52.292;13.452;2022-11-20T06:51:28;17.13;;;10.80;;
21611;SDS011;47005;52.292;13.452;2022-11-20T06:53:54;19.73;;;12.07;;
21611;SDS011;47005;52.292;13.452;2022-11-20T06:56:19;16.23;;;11.17;;
21611;SDS011;47005;52.292;13.452;2022-11-20T06:58:45;15.47;;;10.30;;
21611;SDS011;47005;52.292;13.452;2022-11-20T07:01:11;13.77;;;10.43;;
21611;SDS011;47005;52.292;13.452;2022-11-20T07:03:39;15.97;;;9.83;;
21611;SDS011;47005;52.292;13.452;2022-11-20T07:06:05;18.13;;;10.70;;
21611;SDS011;47005;52.292;13.452;2022-11-20T07:08:32;19.77;;;11.27;;
21611;SDS011;47005;52.292;13.452;2022-11-20T07:10:58;19.13;;;11.07;;
21611;SDS011;47005;52.292;13.452;2022-11-20T07:13:25;15.90;;;9.93;;
21611;SDS011;47005;52.292;13.452;2022-11-20T07:15:52;17.50;;;9.80;;
21611;SDS011;47005;52.292;13.452;2022-11-20T07:18:17;17.40;;;10.17;;
21611;SDS011;47005;52.292;13.452;2022-11-20T07:20:43;18.30;;;10.37;;
21611;SDS011;47005;52.292;13.452;2022-11-20T07:23:08;15.80;;;11.33;;
21611;SDS011;47005;52.292;13.452;2022-11-20T07:25:34;18.83;;;11.93;;
21611;SDS011;47005;52.292;13.452;2022-11-20T07:28:01;19.87;;;12.10;;
21611;SDS011;47005;52.292;13.452;2022-11-20T07:30:28;17.03;;;11.33;;
21611;SDS011;47005;52.292;13.452;2022-11-20T07:32:55;20.20;;;11.43;;
21611;SDS011;47005;52.292;13.452;2022-11-20T07:35:21;16.80;;;12.10;;
21611;SDS011;47005;52.292;13.452;2022-11-20T07:37:48;16.07;;;10.90;;
21611;SDS011;47005;52.292;13.452;2022-11-20T07:40:17;18.00;;;11.07;;
21611;SDS011;47005;52.292;13.452;2022-11-20T07:42:51;14.43;;;10.33;;
21611;SDS011;47005;52.292;13.452;2022-11-20T07:45:18;18.47;;;11.10;;
21611;SDS011;47005;52.292;13.452;2022-11-20T07:47:45;12.23;;;9.17;;
21611;SDS011;47005;52.292;13.452;2022-11-20T07:50:11;16.07;;;9.43;;
21611;SDS011;47005;52.292;13.452;2022-11-20T07:52:37;16.63;;;10.60;;
21611;SDS011;47005;52.292;13.452;2022-11-20T07:55:02;18.23;;;10.90;;
21611;SDS011;47005;52.292;13.452;2022-11-20T07:57:28;28.60;;;11.93;;
21611;SDS011;47005;52.292;13.452;2022-11-20T07:59:54;15.87;;;10.73;;
21611;SDS011;47005;52.292;13.452;2022-11-20T08:02:20;15.57;;;10.33;;
21611;SDS011;47005;52.292;13.452;2022-11-20T08:04:45;16.97;;;11.53;;
21611;SDS011;47005;52.292;13.452;2022-11-20T08:07:11;16.53;;;10.80;;
21611;SDS011;47005;52.292;13.452;2022-11-20T08:09:36;15.57;;;11.10;;
21611;SDS011;47005;52.292;13.452;2022-11-20T08:12:02;15.37;;;10.07;;
21611;SDS011;47005;52.292;13.452;2022-11-20T08:14:46;19.57;;;11.43;;
21611;SDS011;47005;52.292;13.452;2022-11-20T08:17:12;17.30;;;10.37;;
21611;SDS011;47005;52.292;13.452;2022-11-20T08:19:37;18.27;;;10.30;;
21611;SDS011;47005;52.292;13.452;2022-11-20T08:22:03;16.60;;;10.27;;
21611;SDS011;47005;52.292;13.452;2022-11-20T08:24:28;15.23;;;9.90;;
21611;SDS011;47005;52.292;13.452;2022-11-20T08:26:56;19.47;;;11.20;;
21611;SDS011;47005;52.292;13.452;2022-11-20T08:29:28;18.17;;;11.43;;
21611;SDS011;47005;52.292;13.452;2022-11-20T08:31:53;16.83;;;11.27;;
21611;SDS011;47005;52.292;13.452;2022-11-20T08:34:19;16.43;;;10.27;;
21611;SDS011;47005;52.292;13.452;2022-11-20T08:36:44;21.63;;;12.20;;
21611;SDS011;47005;52.292;13.452;2022-11-20T08:39:11;14.77;;;10.50;;
21611;SDS011;47005;52.292;13.452;2022-11-20T08:41:37;18.10;;;11.53;;
21611;SDS011;47005;52.292;13.452;2022-11-20T08:44:03;18.43;;;12.17;;
21611;SDS011;47005;52.292;13.452;2022-11-20T08:46:32;16.57;;;11.53;;
21611;SDS011;47005;52.292;13.452;2022-11-20T08:49:03;19.10;;;11.73;;
21611;SDS011;47005;52.292;13.452;2022-11-20T08:51:31;14.10;;;9.80;;
21611;SDS011;47005;52.292;13.452;2022-11-20T08:53:57;17.27;;;11.30;;
21611;SDS011;47005;52.292;13.452;2022-11-20T08:56:23;17.03;;;10.67;;
21611;SDS011;47005;52.292;13.452;2022-11-20T08:58:49;14.97;;;10.13;;
21611;SDS011;47005;52.292;13.452;2022-11-20T09:01:19;17.43;;;10.17;;
21611;SDS011;47005;52.292;13.452;2022-11-20T09:03:46;20.97;;;10.83;;
21611;SDS011;47005;52.292;13.452;2022-11-20T09:06:11;15.93;;;9.93;;
21611;SDS011;47005;52.292;13.452;2022-11-20T09:08:38;17.83;;;10.07;;
21611;SDS011;47005;52.292;13.452;2022-11-20T09:11:04;20.10;;;13.10;;
21611;SDS011;47005;52.292;13.452;2022-11-20T09:13:30;25.33;;;11.77;;
21611;SDS011;47005;52.292;13.452;2022-11-20T09:16:07;17.27;;;10.23;;
21611;SDS011;47005;52.292;13.452;2022-11-20T09:18:34;15.37;;;11.07;;
21611;SDS011;47005;52.292;13.452;2022-11-20T09:21:05;17.77;;;10.60;;
21611;SDS011;47005;52.292;13.452;2022-11-20T09:23:33;17.70;;;10.53;;
21611;SDS011;47005;52.292;13.452;2022-11-20T09:26:10;17.80;;;11.73;;
21611;SDS011;47005;52.292;13.452;2022-11-20T09:28:37;19.33;;;11.77;;
21611;SDS011;47005;52.292;13.452;2022-11-20T09:31:06;17.97;;;10.50;;
21611;SDS011;47005;52.292;13.452;2022-11-20T09:33:42;19.47;;;11.53;;
21611;SDS011;47005;52.292;13.452;2022-11-20T09:36:08;21.37;;;11.87;;
21611;SDS011;47005;52.292;13.452;2022-11-20T09:38:33;15.23;;;10.90;;
21611;SDS011;47005;52.292;13.452;2022-11-20T09:41:04;17.97;;;12.03;;
21611;SDS011;47005;52.292;13.452;2022-11-20T09:45:58;15.30;;;11.23;;
21611;SDS011;47005;52.292;13.452;2022-11-20T09:54:16;16.10;;;11.27;;
21611;SDS011;47005;52.292;13.452;2022-11-20T09:56:47;21.37;;;12.13;;
21611;SDS011;47005;52.292;13.452;2022-11-20T09:59:30;16.37;;;10.43;;
21611;SDS011;47005;52.292;13.452;2022-11-20T10:01:57;21.17;;;13.27;;
21611;SDS011;47005;52.292;13.452;2022-11-20T10:04:25;20.20;;;12.90;;
21611;SDS011;47005;52.292;13.452;2022-11-20T10:09:43;19.00;;;11.10;;
21611;SDS011;47005;52.292;13.452;2022-11-20T10:16:07;21.77;;;12.40;;
21611;SDS011;47005;52.292;13.452;2022-11-20T10:21:27;16.47;;;11.20;;
21611;SDS011;47005;52.292;13.452;2022-11-20T10:29:19;18.63;;;12.10;;
21611;SDS011;47005;52.292;13.452;2022-11-20T10:31:56;19.33;;;11.83;;
21611;SDS011;47005;52.292;13.452;2022-11-20T10:34:35;20.07;;;13.53;;
21611;SDS011;47005;52.292;13.452;2022-11-20T10:37:15;21.67;;;12.97;;
21611;SDS011;47005;52.292;13.452;2022-11-20T10:48:32;21.33;;;13.63;;
21611;SDS011;47005;52.292;13.452;2022-11-20T10:56:41;21.80;;;14.03;;
21611;SDS011;47005;52.292;13.452;2022-11-20T11:01:55;21.57;;;12.60;;
21611;SDS011;47005;52.292;13.452;2022-11-20T11:04:36;19.17;;;13.17;;
21611;SDS011;47005;52.292;13.452;2022-11-20T11:07:10;23.37;;;13.70;;
21611;SDS011;47005;52.292;13.452;2022-11-20T11:09:59;19.63;;;13.10;;
21611;SDS011;47005;52.292;13.452;2022-11-20T11:12:26;19.53;;;13.27;;
21611;SDS011;47005;52.292;13.452;2022-11-20T11:14:57;19.97;;;13.60;;
21611;SDS011;47005;52.292;13.452;2022-11-20T11:22:23;19.40;;;14.37;;
21611;SDS011;47005;52.292;13.452;2022-11-20T11:24:52;18.50;;;13.60;;
21611;SDS011;47005;52.292;13.452;2022-11-20T11:27:18;19.77;;;12.57;;
21611;SDS011;47005;52.292;13.452;2022-11-20T11:29:47;20.93;;;13.20;;
21611;SDS011;47005;52.292;13.452;2022-11-20T11:34:58;17.27;;;10.77;;
21611;SDS011;47005;52.292;13.452;2022-11-20T11:37:32;16.10;;;11.27;;
21611;SDS011;47005;52.292;13.452;2022-11-20T11:40:00;17.37;;;11.57;;
21611;SDS011;47005;52.292;13.452;2022-11-20T11:42:28;20.50;;;12.33;;
21611;SDS011;47005;52.292;13.452;2022-11-20T11:44:54;18.80;;;11.90;;
21611;SDS011;47005;52.292;13.452;2022-11-20T11:47:36;19.80;;;11.80;;
21611;SDS011;47005;52.292;13.452;2022-11-20T11:50:13;20.73;;;12.13;;
21611;SDS011;47005;52.292;13.452;2022-11-20T11:55:18;19.33;;;12.80;;
21611;SDS011;47005;52.292;13.452;2022-11-20T12:00:37;20.47;;;12.73;;
21611;SDS011;47005;52.292;13.452;2022-11-20T12:03:14;15.53;;;10.70;;
21611;SDS011;47005;52.292;13.452;2022-11-20T12:05:44;19.93;;;10.97;;
21611;SDS011;47005;52.292;13.452;2022-11-20T12:16:14;15.77;;;9.30;;
21611;SDS011;47005;52.292;13.452;2022-11-20T12:18:42;16.17;;;9.90;;
21611;SDS011;47005;52.292;13.452;2022-11-20T12:23:49;15.77;;;9.77;;
21611;SDS011;47005;52.292;13.452;2022-11-20T12:37:30;15.30;;;8.77;;
21611;SDS011;47005;52.292;13.452;2022-11-20T12:41:11;13.23;;;8.90;;
21611;SDS011;47005;52.292;13.452;2022-11-20T12:46:44;12.57;;;9.13;;
21611;SDS011;47005;52.292;13.452;2022-11-20T12:49:47;13.03;;;9.33;;
21611;SDS011;47005;52.292;13.452;2022-11-20T12:52:25;15.37;;;9.70;;
21611;SDS011;47005;52.292;13.452;2022-11-20T13:00:21;17.13;;;10.73;;
21611;SDS011;47005;52.292;13.452;2022-11-20T13:05:37;17.87;;;10.77;;
21611;SDS011;47005;52.292;13.452;2022-11-20T13:08:08;13.03;;;9.63;;
21611;SDS011;47005;52.292;13.452;2022-11-20T13:16:03;12.50;;;9.40;;
21611;SDS011;47005;52.292;13.452;2022-11-20T13:18:34;15.47;;;10.33;;
21611;SDS011;47005;52.292;13.452;2022-11-20T13:21:13;16.53;;;9.83;;
21611;SDS011;47005;52.292;13.452;2022-11-20T13:24:04;14.17;;;9.57;;
21611;SDS011;47005;52.292;13.452;2022-11-20T13:26:45;15.17;;;9.13;;
21611;SDS011;47005;52.292;13.452;2022-11-20T13:29:12;15.70;;;10.13;;
21611;SDS011;47005;52.292;13.452;2022-11-20T13:31:43;17.97;;;9.40;;
21611;SDS011;47005;52.292;13.452;2022-11-20T13:34:23;16.77;;;9.00;;
21611;SDS011;47005;52.292;13.452;2022-11-20T13:36:52;13.63;;;9.27;;
21611;SDS011;47005;52.292;13.452;2022-11-20T13:39:29;13.40;;;7.27;;
21611;SDS011;47005;52.292;13.452;2022-11-20T13:41:56;14.40;;;7.80;;
21611;SDS011;47005;52.292;13.452;2022-11-20T13:44:44;13.83;;;8.37;;
21611;SDS011;47005;52.292;13.452;2022-11-20T13:47:23;12.07;;;7.33;;
21611;SDS011;47005;52.292;13.452;2022-11-20T13:49:53;10.77;;;6.37;;
21611;SDS011;47005;52.292;13.452;2022-11-20T13:57:42;14.27;;;6.53;;
21611;SDS011;47005;52.292;13.452;2022-11-20T14:00:21;11.13;;;6.87;;
21611;SDS011;47005;52.292;13.452;2022-11-20T14:03:30;9.90;;;6.87;;
21611;SDS011;47005;52.292;13.452;2022-11-20T14:05:51;12.20;;;7.17;;
21611;SDS011;47005;52.292;13.452;2022-11-20T14:08:24;10.33;;;7.43;;
21611;SDS011;47005;52.292;13.452;2022-11-20T14:11:17;11.73;;;7.43;;
21611;SDS011;47005;52.292;13.452;2022-11-20T14:14:30;12.67;;;8.07;;
21611;SDS011;47005;52.292;13.452;2022-11-20T14:16:41;7.93;;;5.93;;
21611;SDS011;47005;52.292;13.452;2022-11-20T14:21:47;9.87;;;6.47;;
21611;SDS011;47005;52.292;13.452;2022-11-20T14:24:18;11.53;;;7.93;;
21611;SDS011;47005;52.292;13.452;2022-11-20T14:26:45;11.07;;;7.50;;
21611;SDS011;47005;52.292;13.452;2022-11-20T14:29:15;12.73;;;7.50;;
21611;SDS011;47005;52.292;13.452;2022-11-20T14:31:42;12.27;;;7.63;;
21611;SDS011;47005;52.292;13.452;2022-11-20T14:34:13;12.50;;;6.60;;
21611;SDS011;47005;52.292;13.452;2022-11-20T14:36:42;9.50;;;6.60;;
21611;SDS011;47005;52.292;13.452;2022-11-20T14:39:10;12.70;;;8.10;;
21611;SDS011;47005;52.292;13.452;2022-11-20T14:41:37;11.53;;;7.27;;
21611;SDS011;47005;52.292;13.452;2022-11-20T14:44:03;12.23;;;8.20;;
21611;SDS011;47005;52.292;13.452;2022-11-20T14:46:29;12.93;;;8.17;;
21611;SDS011;47005;52.292;13.452;2022-11-20T14:48:56;13.23;;;7.87;;
21611;SDS011;47005;52.292;13.452;2022-11-20T14:51:28;10.63;;;6.73;;
21611;SDS011;47005;52.292;13.452;2022-11-20T14:54:07;12.73;;;8.07;;
21611;SDS011;47005;52.292;13.452;2022-11-20T14:56:34;11.53;;;7.33;;
21611;SDS011;47005;52.292;13.452;2022-11-20T14:58:59;12.87;;;8.27;;
21611;SDS011;47005;52.292;13.452;2022-11-20T15:01:26;14.03;;;9.47;;
21611;SDS011;47005;52.292;13.452;2022-11-20T15:04:05;14.93;;;9.30;;
21611;SDS011;47005;52.292;13.452;2022-11-20T15:06:34;15.73;;;9.60;;
21611;SDS011;47005;52.292;13.452;2022-11-20T15:09:01;11.80;;;6.73;;
21611;SDS011;47005;52.292;13.452;2022-11-20T15:11:29;12.80;;;7.33;;
21611;SDS011;47005;52.292;13.452;2022-11-20T15:14:03;14.97;;;8.23;;
21611;SDS011;47005;52.292;13.452;2022-11-20T15:16:31;11.00;;;6.63;;
21611;SDS011;47005;52.292;13.452;2022-11-20T15:18:57;10.17;;;7.53;;
21611;SDS011;47005;52.292;13.452;2022-11-20T15:21:23;13.60;;;7.07;;
21611;SDS011;47005;52.292;13.452;2022-11-20T15:23:49;13.23;;;6.87;;
21611;SDS011;47005;52.292;13.452;2022-11-20T15:26:18;10.60;;;7.30;;
21611;SDS011;47005;52.292;13.452;2022-11-20T15:28:52;15.50;;;7.60;;
21611;SDS011;47005;52.292;13.452;2022-11-20T15:31:19;13.10;;;7.00;;
21611;SDS011;47005;52.292;13.452;2022-11-20T15:33:47;11.37;;;7.77;;
21611;SDS011;47005;52.292;13.452;2022-11-20T15:36:13;12.77;;;8.83;;
21611;SDS011;47005;52.292;13.452;2022-11-20T15:38:39;12.27;;;6.90;;
21611;SDS011;47005;52.292;13.452;2022-11-20T15:41:05;14.37;;;7.87;;
21611;SDS011;47005;52.292;13.452;2022-11-20T15:43:31;12.30;;;8.70;;
21611;SDS011;47005;52.292;13.452;2022-11-20T15:45:59;13.57;;;7.53;;
21611;SDS011;47005;52.292;13.452;2022-11-20T15:48:27;11.73;;;7.17;;
21611;SDS011;47005;52.292;13.452;2022-11-20T15:53:37;10.97;;;7.03;;
21611;SDS011;47005;52.292;13.452;2022-11-20T15:56:04;10.73;;;6.87;;
21611;SDS011;47005;52.292;13.452;2022-11-20T15:58:29;12.73;;;8.07;;
21611;SDS011;47005;52.292;13.452;2022-11-20T16:00:55;15.00;;;8.50;;
21611;SDS011;47005;52.292;13.452;2022-11-20T16:03:21;10.30;;;7.33;;
21611;SDS011;47005;52.292;13.452;2022-11-20T16:05:47;13.03;;;7.50;;
21611;SDS011;47005;52.292;13.452;2022-11-20T16:08:13;11.60;;;7.53;;
21611;SDS011;47005;52.292;13.452;2022-11-20T16:10:38;9.57;;;6.60;;
21611;SDS011;47005;52.292;13.452;2022-11-20T16:13:05;11.23;;;7.47;;
21611;SDS011;47005;52.292;13.452;2022-11-20T16:15:59;14.10;;;7.60;;
21611;SDS011;47005;52.292;13.452;2022-11-20T16:18:27;11.13;;;7.30;;
21611;SDS011;47005;52.292;13.452;2022-11-20T16:20:53;9.00;;;6.17;;